Fort Yukon Airport Fort Yukon US
ICAO: PFYU
IATA:
Category: Medium
Scheduled Services:

Elevation: 433 ft
TransAlt. 18000 ft.

Airport Communications:
AWOS 3:125.8
ANCHORAGE CNTR:135
CTAF:122.5
FAIRBANKS RDO:122.1
EIELSON RANGE CON:125.3
TWEB:114.4

PFYU Zoom In..

If you have problems with the map follow the link
https://www.worldairports.se/pages/airport.php?
ICAO=PFYU

Runways:

(A) RW 04 length 5000 ft width 100 ft
---- / hdg 35

(B) RW 22 length 5000 ft width 100 ft
---- / hdg 215

Location; PFYU
Day. 25 / Time. 06.56 Zulu
* Altimeter: 29.90
* Temperature: -19° c. 2.2°f.
* Wind from: 040° Speed 10 kn.
Dewpoint: -22° c.
Visibility: 4 Statute Miles.
Clouds: Overcast 3600 ft.
Conditions: Light Snow.

PFYU 250656Z AUTO 04010KT 4SM -SN OVC036 M19/M22 A2990 RMK AO2 SLP148 P0000 T11891217 FZRANO


Wind From 040°
Speed 10 kn.

 
 
jpsmedia worldairports.se 2020   terms of use